Time;durP1;ratioP1;P1;durP2;ratioP2;P2;SDS_P1;SDS_P2;PMS_P1;PMS_P2;Temp;Humidity;BMP_temperature;BMP_pressure;BME280_temperature;BME280_humidity;BME280_pressure;Samples;Min_cycle;Max_cycle;Signal;HPM_P1;HPM_P2
2022/12/07 00:01:28;;;;;;;6.67;3.53;;;3.10;99.90;2.90;100245.00;;;;4818776;28;87850;-71
2022/12/07 00:04:00;;;;;;;4.53;3.83;;;3.20;99.90;2.90;100254.00;;;;4818771;28;88150;-72
2022/12/07 00:06:26;;;;;;;5.40;3.97;;;3.30;99.90;2.90;100253.00;;;;4800546;28;89061;-73
2022/12/07 00:08:52;;;;;;;5.47;4.73;;;3.20;99.90;2.90;100252.00;;;;4811255;28;112099;-73
2022/12/07 00:11:21;;;;;;;6.10;3.63;;;3.00;99.90;2.80;100256.00;;;;4815837;28;88558;-71
2022/12/07 00:13:52;;;;;;;9.70;3.93;;;3.10;99.90;2.80;100246.00;;;;4820533;28;90445;-71
2022/12/07 00:16:20;;;;;;;6.27;3.77;;;3.00;99.90;2.80;100245.00;;;;4819189;28;100339;-73
2022/12/07 00:18:46;;;;;;;4.60;3.43;;;3.00;99.90;2.80;100237.00;;;;4819380;28;89378;-72
2022/12/07 00:21:16;;;;;;;7.27;3.13;;;3.00;99.90;2.80;100236.00;;;;4820049;28;110844;-72
2022/12/07 00:23:44;;;;;;;3.67;3.00;;;3.00;99.90;2.80;100233.00;;;;4821345;28;87194;-71
2022/12/07 00:26:21;;;;;;;6.83;3.43;;;3.00;99.90;2.80;100231.00;;;;4806174;28;87895;-73
2022/12/07 00:28:53;;;;;;;5.83;4.10;;;3.00;99.90;2.70;100218.00;;;;4803585;28;88130;-70
2022/12/07 00:31:21;;;;;;;3.83;3.40;;;3.10;99.90;2.70;100223.00;;;;4817520;28;105884;-72
2022/12/07 00:33:47;;;;;;;8.83;4.53;;;3.00;99.90;2.70;100216.00;;;;4817595;28;87769;-72
2022/12/07 00:36:16;;;;;;;7.50;3.70;;;3.90;99.90;2.70;100201.00;;;;4814841;28;107833;-71
2022/12/07 00:38:42;;;;;;;8.47;4.43;;;3.00;99.90;2.70;100205.00;;;;4792860;28;108940;-70
2022/12/07 00:41:18;;;;;;;6.03;3.97;;;2.90;99.90;2.70;100210.00;;;;4817666;28;92285;-72
2022/12/07 00:43:46;;;;;;;5.73;4.40;;;3.00;99.90;2.70;100201.00;;;;4798402;29;88075;-74
2022/12/07 00:46:14;;;;;;;5.07;4.57;;;2.90;99.90;2.60;100208.00;;;;4805426;29;87810;-69
2022/12/07 00:48:40;;;;;;;7.20;3.80;;;2.90;99.90;2.70;100217.00;;;;4803445;29;87393;-71
2022/12/07 00:51:07;;;;;;;6.67;4.00;;;2.90;99.90;2.70;100208.00;;;;4814668;28;90804;-70
2022/12/07 00:53:37;;;;;;;8.10;4.77;;;2.90;99.90;2.60;100208.00;;;;4814474;28;87909;-72
2022/12/07 00:56:13;;;;;;;7.57;4.83;;;2.90;99.90;2.60;100212.00;;;;4819854;28;88944;-71
2022/12/07 00:58:39;;;;;;;8.23;4.80;;;2.90;99.90;2.70;100223.00;;;;4814163;28;88351;-70
2022/12/07 01:01:07;;;;;;;10.83;5.27;;;2.90;99.90;2.60;100219.00;;;;4817847;28;107764;-70
2022/12/07 01:03:33;;;;;;;12.20;6.63;;;2.90;99.90;2.60;100223.00;;;;4816129;28;88135;-70
2022/12/07 01:05:59;;;;;;;6.13;5.20;;;2.90;99.90;2.60;100217.00;;;;4815639;28;89316;-69
2022/12/07 01:08:27;;;;;;;11.90;6.13;;;2.90;99.90;2.60;100219.00;;;;4821684;28;89291;-71
2022/12/07 01:11:04;;;;;;;8.33;6.10;;;2.90;99.90;2.60;100215.00;;;;4817503;28;88479;-71
2022/12/07 01:13:30;;;;;;;6.93;4.63;;;3.00;99.90;2.60;100218.00;;;;4818228;28;87333;-70
2022/12/07 01:16:00;;;;;;;7.63;4.70;;;2.90;99.90;2.60;100218.00;;;;4816225;28;97012;-73
2022/12/07 01:18:27;;;;;;;8.63;5.90;;;3.70;99.90;2.60;100226.00;;;;4800663;29;87966;-70
2022/12/07 01:21:21;;;;;;;10.70;5.70;;;2.90;99.90;2.60;100222.00;;;;4814802;28;88951;-71
2022/12/07 01:23:48;;;;;;;13.67;5.50;;;2.90;99.90;2.60;100230.00;;;;4794672;29;87930;-72
2022/12/07 01:26:17;;;;;;;8.43;6.27;;;2.80;99.90;2.60;100224.00;;;;4802798;28;87958;-70
2022/12/07 01:28:43;;;;;;;5.83;5.07;;;2.90;99.90;2.60;100230.00;;;;4816494;28;87572;-71
2022/12/07 01:31:14;;;;;;;8.77;5.33;;;2.90;99.90;2.60;100230.00;;;;4817460;28;89025;-70
2022/12/07 01:33:42;;;;;;;7.67;5.93;;;2.90;99.90;2.60;100219.00;;;;4816224;28;87972;-72
2022/12/07 01:36:22;;;;;;;8.40;6.13;;;2.90;99.90;2.60;100220.00;;;;4814689;28;97842;-70
2022/12/07 01:38:52;;;;;;;6.73;5.50;;;2.80;99.90;2.60;100223.00;;;;4800564;28;87115;-72
2022/12/07 01:41:18;;;;;;;7.37;5.70;;;2.80;99.90;2.50;100217.00;;;;4795900;29;87850;-69
2022/12/07 01:44:20;;;;;;;6.67;6.00;;;2.80;99.90;2.50;100217.00;;;;4821731;28;87944;-70
2022/12/07 01:46:52;;;;;;;7.13;5.50;;;3.50;99.90;2.50;100218.00;;;;4812677;28;88904;-71
2022/12/07 01:49:47;;;;;;;9.37;5.47;;;2.70;99.90;2.40;100209.00;;;;4812316;28;88703;-71
2022/12/07 01:52:31;;;;;;;10.10;6.87;;;2.70;99.90;2.40;100219.00;;;;4803608;28;110223;-70
2022/12/07 01:55:11;;;;;;;10.27;6.60;;;2.80;99.90;2.40;100212.00;;;;4801977;28;87944;-69
2022/12/07 01:57:49;;;;;;;9.17;6.47;;;2.60;99.90;2.40;100216.00;;;;4801400;28;87847;-71
2022/12/07 02:00:15;;;;;;;8.67;5.33;;;2.70;99.90;2.30;100211.00;;;;4797939;28;91157;-71
2022/12/07 02:02:48;;;;;;;6.70;5.33;;;2.70;99.90;2.30;100203.00;;;;4821165;28;88436;-71
2022/12/07 02:05:14;;;;;;;7.20;4.67;;;2.60;99.90;2.30;100210.00;;;;4805611;28;87154;-71
2022/12/07 02:07:40;;;;;;;8.17;5.03;;;3.00;99.90;2.30;100202.00;;;;4817457;28;93090;-70
2022/12/07 02:10:25;;;;;;;7.20;4.80;;;2.60;99.90;2.20;100201.00;;;;4801192;28;89343;-71
2022/12/07 02:13:11;;;;;;;5.60;4.70;;;2.50;99.90;2.20;100202.00;;;;4812576;28;89806;-71
2022/12/07 02:16:05;;;;;;;7.30;4.77;;;2.40;99.90;2.20;100209.00;;;;4801650;29;88398;-69
2022/12/07 02:19:26;;;;;;;8.97;4.83;;;2.50;99.90;2.20;100216.00;;;;4819344;28;87915;-71
2022/12/07 02:22:40;;;;;;;6.07;4.03;;;2.50;99.90;2.20;100219.00;;;;4817559;28;87872;-71
2022/12/07 02:25:48;;;;;;;11.53;4.87;;;2.40;99.90;2.20;100217.00;;;;4801251;28;103256;-69
2022/12/07 02:28:54;;;;;;;7.30;4.87;;;2.40;99.90;2.20;100207.00;;;;4802276;28;91324;-71
2022/12/07 02:31:23;;;;;;;8.23;5.87;;;2.50;99.90;2.20;100195.00;;;;4817186;28;87855;-70
2022/12/07 02:34:08;;;;;;;6.30;4.60;;;2.40;99.90;2.20;100195.00;;;;4800716;28;99863;-71
2022/12/07 02:36:40;;;;;;;7.67;5.20;;;3.60;99.90;2.20;100199.00;;;;4794780;28;100053;-70
2022/12/07 02:39:23;;;;;;;5.80;4.10;;;2.50;99.90;2.20;100181.00;;;;4813719;28;87709;-70
2022/12/07 02:41:55;;;;;;;8.37;4.70;;;2.50;99.90;2.10;100181.00;;;;4814469;28;89495;-70
2022/12/07 02:44:27;;;;;;;7.80;5.47;;;2.50;99.90;2.00;100187.00;;;;4817212;28;108816;-69
2022/12/07 02:47:05;;;;;;;5.57;4.30;;;2.40;99.90;2.00;100184.00;;;;4807161;28;87817;-70
2022/12/07 02:49:33;;;;;;;5.63;4.53;;;2.30;99.90;1.90;100175.00;;;;4803642;29;87802;-69
2022/12/07 02:51:59;;;;;;;7.87;5.20;;;2.30;99.90;1.90;100174.00;;;;4817220;28;108797;-69
2022/12/07 02:54:24;;;;;;;8.97;5.20;;;2.30;99.90;1.90;100175.00;;;;4816568;28;118880;-70
2022/12/07 02:57:20;;;;;;;5.13;3.30;;;3.00;99.90;1.90;100171.00;;;;4804054;28;117179;-69
2022/12/07 03:00:06;;;;;;;7.60;5.20;;;2.30;99.90;1.90;100171.00;;;;4796980;28;103608;-69
2022/12/07 03:03:03;;;;;;;8.47;5.20;;;2.20;99.90;1.90;100165.00;;;;4821155;28;87871;-69
2022/12/07 03:05:58;;;;;;;6.80;4.87;;;2.10;99.90;2.00;100166.00;;;;4799768;28;88602;-68
2022/12/07 03:09:10;;;;;;;7.83;5.20;;;2.30;99.90;2.00;100159.00;;;;4810381;28;88765;-67
2022/12/07 03:12:07;;;;;;;10.27;5.67;;;2.30;99.90;2.00;100165.00;;;;4805388;28;103956;-68
2022/12/07 03:14:42;;;;;;;11.60;4.93;;;2.30;99.90;2.00;100155.00;;;;4823474;28;99798;-69
2022/12/07 03:17:23;;;;;;;8.87;5.10;;;3.30;99.90;2.00;100154.00;;;;4811211;28;107935;-69
2022/12/07 03:19:55;;;;;;;9.93;5.83;;;2.30;99.90;2.00;100166.00;;;;4806892;28;95404;-70
2022/12/07 03:22:23;;;;;;;7.03;5.47;;;2.30;99.90;2.10;100157.00;;;;4799372;29;99179;-70
2022/12/07 03:24:55;;;;;;;10.70;6.23;;;2.30;99.90;2.00;100149.00;;;;4802422;28;108523;-69
2022/12/07 03:27:25;;;;;;;9.03;5.20;;;2.30;99.90;2.00;100147.00;;;;4798711;29;101051;-69
2022/12/07 03:30:05;;;;;;;13.30;6.13;;;2.40;99.90;1.90;100144.00;;;;4821140;28;88081;-69
2022/12/07 03:32:57;;;;;;;10.70;7.23;;;2.20;99.90;1.80;100140.00;;;;4820332;28;88234;-68
2022/12/07 03:35:33;;;;;;;8.77;6.30;;;2.20;99.90;1.80;100147.00;;;;4820301;28;88820;-68
2022/12/07 03:38:17;;;;;;;8.33;6.53;;;2.70;99.90;1.80;100136.00;;;;4802849;28;87936;-69
2022/12/07 03:40:54;;;;;;;10.50;6.67;;;2.20;99.90;1.80;100140.00;;;;4823014;28;88037;-67
2022/12/07 03:43:21;;;;;;;9.53;7.03;;;2.10;99.90;1.80;100132.00;;;;4817218;28;88896;-69
2022/12/07 03:46:29;;;;;;;14.27;7.17;;;2.10;99.90;1.70;100130.00;;;;4799249;28;87889;-68
2022/12/07 03:49:22;;;;;;;10.20;5.77;;;2.00;99.90;1.70;100124.00;;;;4820707;28;88026;-68
2022/12/07 03:52:31;;;;;;;9.77;7.73;;;2.10;99.90;1.70;100118.00;;;;4817415;28;88029;-67
2022/12/07 03:55:20;;;;;;;10.30;6.47;;;2.00;99.90;1.70;100117.00;;;;4805426;28;87237;-67
2022/12/07 03:57:49;;;;;;;11.63;7.10;;;2.00;99.90;1.70;100102.00;;;;4801884;28;94771;-67
2022/12/07 04:00:15;;;;;;;14.20;6.77;;;2.00;99.90;1.70;100094.00;;;;4801404;28;93485;-69
2022/12/07 04:02:42;;;;;;;10.63;7.03;;;2.10;99.90;1.70;100104.00;;;;4822520;28;89291;-69
2022/12/07 04:05:09;;;;;;;9.37;6.17;;;2.00;99.90;1.60;100096.00;;;;4819885;28;87879;-68
2022/12/07 04:07:34;;;;;;;8.23;6.30;;;2.70;99.90;1.60;100100.00;;;;4824395;28;108237;-67
2022/12/07 04:10:00;;;;;;;11.80;8.07;;;2.00;99.90;1.60;100091.00;;;;4822299;28;118159;-69
2022/12/07 04:12:25;;;;;;;9.40;5.80;;;1.80;99.90;1.60;100100.00;;;;4819120;28;116234;-68
2022/12/07 04:14:51;;;;;;;9.70;7.33;;;1.80;99.90;1.50;100101.00;;;;4819951;28;110101;-68
2022/12/07 04:17:17;;;;;;;14.47;6.90;;;1.90;99.90;1.50;100098.00;;;;4816670;28;108637;-67
2022/12/07 04:19:42;;;;;;;9.60;6.03;;;1.90;99.90;1.50;100101.00;;;;4819214;28;116927;-67
2022/12/07 04:22:08;;;;;;;12.40;6.37;;;1.70;99.90;1.50;100088.00;;;;4820745;28;116368;-68
2022/12/07 04:24:34;;;;;;;14.13;7.73;;;1.80;99.90;1.50;100086.00;;;;4818916;28;110560;-67
2022/12/07 04:27:00;;;;;;;9.73;7.33;;;1.80;99.90;1.50;100087.00;;;;4816058;28;97149;-67
2022/12/07 04:29:26;;;;;;;9.03;6.33;;;1.80;99.90;1.40;100091.00;;;;4818000;28;88914;-69
2022/12/07 04:31:53;;;;;;;11.40;6.40;;;1.80;99.90;1.40;100060.00;;;;4818886;28;88359;-68
2022/12/07 04:34:19;;;;;;;10.83;6.30;;;1.70;99.90;1.40;100065.00;;;;4816090;28;88062;-68
2022/12/07 04:36:46;;;;;;;10.90;6.43;;;1.70;99.90;1.40;100069.00;;;;4812305;28;87777;-67
2022/12/07 04:39:28;;;;;;;9.27;6.60;;;1.70;99.90;1.40;100060.00;;;;4817937;28;88062;-67
2022/12/07 04:41:54;;;;;;;11.80;6.50;;;1.60;99.90;1.30;100067.00;;;;4818552;28;88069;-68
2022/12/07 04:44:21;;;;;;;12.70;8.33;;;1.60;99.90;1.30;100066.00;;;;4819714;28;111798;-68
2022/12/07 04:46:47;;;;;;;9.00;6.83;;;1.70;99.90;1.30;100053.00;;;;4817811;28;101614;-68
2022/12/07 04:49:14;;;;;;;15.37;7.13;;;1.70;99.90;1.30;100057.00;;;;4821168;28;88907;-68
2022/12/07 04:51:40;;;;;;;9.93;6.50;;;1.60;99.90;1.20;100047.00;;;;4819148;28;89351;-68
2022/12/07 04:54:06;;;;;;;13.40;6.57;;;1.60;99.90;1.20;100041.00;;;;4817142;28;87586;-68
2022/12/07 04:56:32;;;;;;;7.63;6.50;;;0.80;99.90;1.20;100040.00;;;;4815858;28;107648;-68
2022/12/07 04:58:58;;;;;;;8.80;6.77;;;1.50;99.90;1.20;100045.00;;;;4802622;28;88921;-69
2022/12/07 05:01:24;;;;;;;9.53;6.67;;;1.60;99.90;1.30;100037.00;;;;4818738;28;104739;-68
2022/12/07 05:03:51;;;;;;;9.63;6.33;;;1.60;99.90;1.30;100029.00;;;;4819199;28;110627;-67
2022/12/07 05:06:17;;;;;;;12.83;7.77;;;1.30;99.90;1.30;100037.00;;;;4814120;28;88207;-67
2022/12/07 05:08:43;;;;;;;10.30;7.97;;;1.60;99.90;1.40;100033.00;;;;4818792;28;116894;-67
2022/12/07 05:11:09;;;;;;;10.20;7.47;;;1.60;99.90;1.40;100033.00;;;;4821881;28;98647;-68
2022/12/07 05:13:36;;;;;;;12.30;7.10;;;1.70;99.90;1.40;100036.00;;;;4801316;29;87980;-68
2022/12/07 05:16:01;;;;;;;8.90;6.17;;;1.70;99.90;1.40;100031.00;;;;4815815;28;99527;-68
2022/12/07 05:18:27;;;;;;;7.73;6.50;;;1.70;99.90;1.50;100030.00;;;;4799792;29;111070;-67
2022/12/07 05:20:53;;;;;;;9.83;5.70;;;1.80;99.90;1.50;100031.00;;;;4816480;28;117739;-68
2022/12/07 05:23:19;;;;;;;10.90;6.30;;;1.80;99.90;1.60;100029.00;;;;4817685;28;88006;-67
2022/12/07 05:25:46;;;;;;;9.03;6.60;;;1.80;99.90;1.60;100025.00;;;;4816721;28;88063;-67
2022/12/07 05:28:12;;;;;;;11.73;7.57;;;1.80;99.90;1.60;100036.00;;;;4819100;28;117003;-68
2022/12/07 05:30:38;;;;;;;8.17;5.60;;;1.80;99.90;1.60;100024.00;;;;4818049;28;92985;-68
2022/12/07 05:33:05;;;;;;;10.37;6.53;;;1.80;99.90;1.60;100021.00;;;;4822542;28;96174;-67
2022/12/07 05:35:30;;;;;;;12.20;7.67;;;1.90;99.90;1.60;100028.00;;;;4817198;28;87910;-67
2022/12/07 05:37:57;;;;;;;9.87;6.03;;;1.80;99.90;1.60;100008.00;;;;4821186;28;117742;-66
2022/12/07 05:40:22;;;;;;;5.23;4.07;;;1.80;99.90;1.70;100004.00;;;;4814072;28;89251;-69
2022/12/07 05:42:48;;;;;;;11.13;5.90;;;1.90;99.90;1.70;99996.00;;;;4817092;28;108970;-68
2022/12/07 05:45:14;;;;;;;12.23;6.57;;;2.00;99.90;1.70;99998.00;;;;4815371;28;108932;-67
2022/12/07 05:47:39;;;;;;;8.77;6.43;;;2.90;99.90;1.70;100004.00;;;;4820324;28;114177;-67
2022/12/07 05:50:06;;;;;;;7.83;5.20;;;1.90;99.90;1.70;100002.00;;;;4809781;28;117243;-67
2022/12/07 05:52:32;;;;;;;8.00;5.93;;;2.00;99.90;1.70;100007.00;;;;4810758;28;88090;-67
2022/12/07 05:54:58;;;;;;;8.83;5.70;;;1.90;99.90;1.70;100009.00;;;;4815211;28;106449;-67
2022/12/07 05:57:23;;;;;;;10.07;5.23;;;1.90;99.90;1.70;100002.00;;;;4816192;28;87199;-67
2022/12/07 05:59:49;;;;;;;9.67;4.13;;;2.00;99.90;1.70;99995.00;;;;4815460;28;98799;-67
2022/12/07 06:02:16;;;;;;;8.27;4.97;;;2.00;99.90;1.70;100004.00;;;;4814922;28;109034;-67
2022/12/07 06:04:45;;;;;;;9.47;4.97;;;2.00;99.90;1.70;100002.00;;;;4815624;28;88874;-67
2022/12/07 06:07:13;;;;;;;7.97;5.53;;;2.00;99.90;1.80;99996.00;;;;4813448;28;88563;-67
2022/12/07 06:09:39;;;;;;;5.47;4.90;;;2.00;99.90;1.80;100003.00;;;;4808216;28;108852;-67
2022/12/07 06:14:50;;;;;;;8.20;5.07;;;2.10;99.90;1.80;99994.00;;;;4809791;28;87863;-67
2022/12/07 06:17:16;;;;;;;6.53;5.07;;;2.00;99.90;1.80;99999.00;;;;4815477;28;87966;-69
2022/12/07 06:19:42;;;;;;;9.63;6.03;;;2.10;99.90;1.90;99991.00;;;;4809848;28;115865;-67
2022/12/07 06:22:09;;;;;;;5.60;4.63;;;2.10;99.90;1.90;99994.00;;;;4811471;28;99184;-67
2022/12/07 06:24:35;;;;;;;5.30;4.77;;;2.10;99.90;1.90;99996.00;;;;4814232;28;87689;-67
2022/12/07 06:27:01;;;;;;;9.87;5.03;;;2.20;99.90;1.90;100005.00;;;;4814908;28;116478;-69
2022/12/07 06:29:26;;;;;;;8.03;4.87;;;2.20;99.90;1.90;99994.00;;;;4811742;28;88805;-67
2022/12/07 06:31:52;;;;;;;6.93;5.60;;;2.20;99.90;1.90;99993.00;;;;4808317;28;92935;-68
2022/12/07 06:34:22;;;;;;;6.03;5.03;;;2.20;99.90;1.90;100008.00;;;;4810494;28;109213;-67
2022/12/07 06:36:51;;;;;;;6.43;4.90;;;2.20;99.90;1.90;99992.00;;;;4814041;28;89196;-69
2022/12/07 06:39:19;;;;;;;11.70;5.87;;;2.90;99.90;1.90;99993.00;;;;4808656;28;88901;-69
2022/12/07 06:41:45;;;;;;;10.20;5.40;;;2.20;99.90;1.80;100006.00;;;;4815670;28;87993;-68
2022/12/07 06:44:10;;;;;;;8.47;5.53;;;2.10;99.90;1.70;99989.00;;;;4816529;28;87833;-67
2022/12/07 06:46:36;;;;;;;4.57;3.83;;;2.00;99.90;1.70;100000.00;;;;4816676;28;116969;-70
2022/12/07 06:49:04;;;;;;;8.63;4.37;;;1.50;99.90;1.60;99991.00;;;;4818222;28;116302;-69
2022/12/07 06:51:30;;;;;;;7.90;4.87;;;2.00;99.90;1.50;100003.00;;;;4814662;28;87836;-67
2022/12/07 06:53:56;;;;;;;6.10;4.33;;;2.00;99.90;1.50;99995.00;;;;4813867;28;95767;-68
2022/12/07 06:56:22;;;;;;;7.40;4.73;;;1.80;99.90;1.50;99999.00;;;;4815970;28;118335;-69
2022/12/07 06:58:49;;;;;;;9.00;5.17;;;1.80;99.90;1.50;100006.00;;;;4815421;28;87956;-68
2022/12/07 07:01:17;;;;;;;6.67;5.10;;;1.80;99.90;1.40;100000.00;;;;4816435;28;88609;-70
2022/12/07 07:03:45;;;;;;;9.23;5.43;;;1.70;99.90;1.40;99987.00;;;;4814471;28;88279;-71
2022/12/07 07:06:11;;;;;;;7.57;4.67;;;1.70;99.90;1.40;100002.00;;;;4814768;28;88921;-70
2022/12/07 07:08:38;;;;;;;9.27;5.07;;;1.70;99.90;1.40;99997.00;;;;4819117;28;87734;-69
2022/12/07 07:11:06;;;;;;;11.07;5.77;;;1.70;99.90;1.40;99991.00;;;;4817772;28;87392;-70
2022/12/07 07:13:32;;;;;;;8.87;4.70;;;1.70;99.90;1.40;99992.00;;;;4811421;28;87808;-70
2022/12/07 07:15:58;;;;;;;8.70;6.60;;;1.60;99.90;1.30;99997.00;;;;4816450;28;95956;-70
2022/12/07 07:18:24;;;;;;;7.67;5.23;;;1.60;99.90;1.40;99989.00;;;;4815949;28;117114;-69
2022/12/07 07:20:54;;;;;;;6.27;5.03;;;1.70;99.90;1.40;99994.00;;;;4818172;28;89049;-69
2022/12/07 07:23:21;;;;;;;8.23;4.40;;;1.80;99.90;1.40;100000.00;;;;4815969;28;100270;-69
2022/12/07 07:25:47;;;;;;;6.37;3.93;;;1.60;99.90;1.40;100002.00;;;;4816231;28;106342;-69
2022/12/07 07:28:14;;;;;;;7.13;4.63;;;1.70;99.90;1.50;99988.00;;;;4793403;28;87891;-69
2022/12/07 07:30:40;;;;;;;7.57;4.60;;;1.70;99.90;1.50;99988.00;;;;4815917;28;88152;-70
2022/12/07 07:33:06;;;;;;;8.73;5.27;;;1.80;99.90;1.50;99998.00;;;;4812839;28;94535;-71
2022/12/07 07:35:33;;;;;;;7.80;4.67;;;1.80;99.90;1.50;99994.00;;;;4816700;28;93222;-70
2022/12/07 07:38:00;;;;;;;8.13;5.23;;;1.80;99.90;1.60;99989.00;;;;4819226;28;88006;-71
2022/12/07 07:40:27;;;;;;;9.30;5.07;;;1.80;99.90;1.60;99993.00;;;;4815085;28;87983;-70
2022/12/07 07:42:54;;;;;;;6.20;4.73;;;1.90;99.90;1.70;99980.00;;;;4818328;28;88816;-70
2022/12/07 07:45:22;;;;;;;6.20;4.53;;;1.90;99.90;1.70;99990.00;;;;4817362;28;88552;-69
2022/12/07 07:47:48;;;;;;;9.80;5.70;;;1.90;99.90;1.80;99987.00;;;;4811504;28;111739;-68
2022/12/07 07:50:15;;;;;;;8.97;4.60;;;1.90;99.90;1.80;99983.00;;;;4811694;28;87640;-70
2022/12/07 07:52:41;;;;;;;7.10;4.33;;;2.10;99.90;1.80;99987.00;;;;4812232;28;87950;-71
2022/12/07 07:55:08;;;;;;;6.80;4.83;;;2.70;99.90;1.90;99992.00;;;;4798141;28;101924;-70
2022/12/07 07:57:35;;;;;;;8.73;5.57;;;2.20;99.90;1.90;99989.00;;;;4821879;28;88017;-70
2022/12/07 08:00:06;;;;;;;10.43;5.50;;;2.10;99.90;1.90;99988.00;;;;4816359;28;86978;-70
2022/12/07 08:02:32;;;;;;;6.17;4.90;;;2.10;99.90;2.00;99998.00;;;;4816494;28;87838;-70
2022/12/07 08:04:57;;;;;;;7.93;6.20;;;2.30;99.90;2.00;99990.00;;;;4816442;28;100151;-70
2022/12/07 08:07:23;;;;;;;5.87;4.17;;;2.30;99.90;2.10;99988.00;;;;4814525;28;89199;-70
2022/12/07 08:09:49;;;;;;;7.60;5.03;;;2.30;99.90;2.10;99999.00;;;;4808623;28;109677;-71
2022/12/07 08:12:14;;;;;;;6.73;4.67;;;2.50;99.90;2.10;99995.00;;;;4798052;28;108241;-69
2022/12/07 08:14:41;;;;;;;5.30;4.27;;;2.40;99.90;2.20;99990.00;;;;4813876;28;117855;-70
2022/12/07 08:17:06;;;;;;;8.17;5.47;;;2.40;99.90;2.20;99988.00;;;;4816657;28;88323;-69
2022/12/07 08:19:33;;;;;;;7.00;5.00;;;2.30;99.90;2.20;99976.00;;;;4815373;28;110768;-70
2022/12/07 08:21:58;;;;;;;6.93;4.57;;;2.50;99.90;2.30;99992.00;;;;4818013;28;87984;-69
2022/12/07 08:24:25;;;;;;;5.93;4.87;;;2.50;99.90;2.30;99983.00;;;;4811823;28;116916;-71
2022/12/07 08:26:50;;;;;;;4.60;3.87;;;2.60;99.90;2.30;99989.00;;;;4813365;28;88007;-70
2022/12/07 08:29:16;;;;;;;4.70;3.87;;;2.50;99.90;2.40;99992.00;;;;4811367;28;109055;-70
2022/12/07 08:31:42;;;;;;;8.83;4.63;;;3.40;99.90;2.40;99990.00;;;;4815057;28;88739;-71
2022/12/07 08:34:10;;;;;;;8.23;4.60;;;2.70;99.90;2.40;99976.00;;;;4815042;28;88482;-68
2022/12/07 08:36:36;;;;;;;10.40;5.80;;;2.70;99.90;2.50;99973.00;;;;4814432;28;88446;-69
2022/12/07 08:39:03;;;;;;;8.57;5.13;;;2.70;99.90;2.60;99986.00;;;;4811056;28;87998;-68
2022/12/07 08:41:28;;;;;;;5.80;4.23;;;2.70;99.90;2.60;99982.00;;;;4812193;28;88113;-69
2022/12/07 08:43:54;;;;;;;9.03;4.40;;;2.90;99.90;2.70;99988.00;;;;4813902;28;114663;-71
2022/12/07 08:46:26;;;;;;;5.53;4.10;;;2.90;99.90;2.70;99972.00;;;;4811067;28;116725;-70
2022/12/07 08:49:03;;;;;;;5.03;4.43;;;2.90;99.90;2.80;99975.00;;;;4795328;28;100571;-69
2022/12/07 08:51:29;;;;;;;5.27;4.23;;;3.00;99.90;2.90;99986.00;;;;4798981;28;87860;-70
2022/12/07 08:53:58;;;;;;;6.70;5.07;;;3.30;99.90;2.90;99981.00;;;;4794389;28;117863;-69
2022/12/07 08:56:24;;;;;;;7.13;4.83;;;3.10;99.90;3.00;99981.00;;;;4812387;28;89140;-72
2022/12/07 08:58:50;;;;;;;5.37;4.23;;;3.50;99.90;3.00;99978.00;;;;4808412;28;101301;-71
2022/12/07 09:01:16;;;;;;;4.77;4.20;;;3.30;99.90;3.10;99988.00;;;;4812012;28;106624;-67
2022/12/07 09:03:41;;;;;;;7.07;5.07;;;3.20;99.90;3.10;99984.00;;;;4814063;28;117083;-68
2022/12/07 09:06:08;;;;;;;7.33;3.97;;;3.40;99.90;3.20;100004.00;;;;4815157;28;115921;-70
2022/12/07 09:08:40;;;;;;;5.87;3.63;;;3.40;99.90;3.20;99995.00;;;;4800809;28;111358;-69
2022/12/07 09:11:05;;;;;;;7.93;5.23;;;3.30;99.90;3.20;100001.00;;;;4819343;28;99585;-70
2022/12/07 09:13:31;;;;;;;7.10;5.30;;;3.40;99.90;3.30;99989.00;;;;4813770;28;115166;-68
2022/12/07 09:15:57;;;;;;;7.30;5.40;;;3.60;99.90;3.30;99982.00;;;;4818119;28;88035;-67
2022/12/07 09:18:24;;;;;;;8.67;5.00;;;3.50;99.90;3.30;99995.00;;;;4818833;28;110916;-69
2022/12/07 09:20:49;;;;;;;6.50;4.10;;;3.50;99.90;3.40;99984.00;;;;4815586;28;88915;-68
2022/12/07 09:23:15;;;;;;;8.43;5.13;;;3.60;99.90;3.50;99984.00;;;;4820735;28;117487;-67
2022/12/07 09:25:41;;;;;;;5.53;4.37;;;3.60;99.90;3.60;99976.00;;;;4815119;28;106227;-68
2022/12/07 09:28:07;;;;;;;4.93;3.63;;;3.80;99.90;3.70;99987.00;;;;4801721;28;87983;-68
2022/12/07 09:30:32;;;;;;;6.10;5.17;;;3.80;99.90;3.70;99991.00;;;;4813870;28;87928;-67
2022/12/07 09:32:58;;;;;;;10.87;5.07;;;3.90;99.90;3.70;99986.00;;;;4819480;28;116339;-67
2022/12/07 09:35:25;;;;;;;6.40;4.77;;;3.90;99.90;3.80;99993.00;;;;4805685;28;117580;-67
2022/12/07 09:37:50;;;;;;;8.50;5.27;;;3.90;99.90;3.80;99989.00;;;;4817323;28;87150;-67
2022/12/07 09:40:19;;;;;;;5.63;4.70;;;4.00;99.90;3.90;99994.00;;;;4816666;28;108162;-67
2022/12/07 09:42:51;;;;;;;6.83;5.13;;;4.00;99.90;3.90;99992.00;;;;4817959;28;93713;-67
2022/12/07 09:45:25;;;;;;;4.97;3.53;;;4.10;99.90;3.90;100000.00;;;;4812350;28;108495;-67
2022/12/07 09:47:51;;;;;;;6.17;5.03;;;4.10;99.90;3.90;99996.00;;;;4795761;29;87993;-68
2022/12/07 09:50:23;;;;;;;6.47;4.77;;;4.10;99.90;4.00;99994.00;;;;4799974;28;88049;-67
2022/12/07 09:52:50;;;;;;;7.47;4.60;;;4.10;99.90;3.90;99991.00;;;;4815317;28;88500;-67
2022/12/07 09:55:24;;;;;;;6.10;4.10;;;4.00;99.90;4.00;99988.00;;;;4814505;28;88584;-66
2022/12/07 09:57:51;;;;;;;5.90;4.40;;;4.10;99.90;4.00;100004.00;;;;4799198;28;91930;-67
2022/12/07 10:00:21;;;;;;;4.53;4.03;;;4.10;99.90;4.00;99996.00;;;;4791087;28;88023;-67
2022/12/07 10:02:58;;;;;;;7.07;5.07;;;4.20;99.90;4.00;99991.00;;;;4800375;28;89812;-66
2022/12/07 10:05:39;;;;;;;4.83;4.03;;;4.20;99.90;4.00;99997.00;;;;4813862;28;88229;-67
2022/12/07 10:08:08;;;;;;;7.20;3.70;;;4.20;99.90;4.00;99995.00;;;;4795962;28;87705;-67
2022/12/07 10:10:38;;;;;;;6.23;3.93;;;4.20;99.90;4.10;99981.00;;;;4799106;28;88870;-67
2022/12/07 10:13:14;;;;;;;4.80;4.02;;;4.20;99.90;4.10;99990.00;;;;4079315;28;10001306;-67
2022/12/07 10:15:52;;;;;;;8.90;3.43;;;4.30;99.90;4.10;99993.00;;;;4792380;28;110557;-66
2022/12/07 10:18:38;;;;;;;4.57;3.22;;;4.30;99.90;4.20;99993.00;;;;3696771;28;10001496;-67
2022/12/07 10:21:25;;;;;;;5.47;3.30;;;4.40;99.90;4.20;99992.00;;;;4293527;28;10089616;-66
2022/12/07 10:24:08;;;;;;;3.60;3.30;;;4.40;99.90;4.20;99983.00;;;;4811113;28;89247;-68
2022/12/07 10:26:51;;;;;;;6.77;3.53;;;4.40;99.90;4.20;99991.00;;;;4813727;28;105009;-67
2022/12/07 10:29:26;;;;;;;3.43;2.57;;;4.40;99.90;4.20;99986.00;;;;4798171;28;87276;-66
2022/12/07 10:31:59;;;;;;;5.20;3.87;;;4.40;99.90;4.20;99990.00;;;;4802949;28;101485;-66
2022/12/07 10:34:32;;;;;;;5.47;3.80;;;4.40;99.90;4.20;99986.00;;;;4813179;28;100875;-68
2022/12/07 10:37:17;;;;;;;8.23;3.60;;;4.50;99.90;4.30;99995.00;;;;4806068;28;89044;-67
2022/12/07 10:39:53;;;;;;;4.60;3.17;;;4.40;99.90;4.30;99993.00;;;;4817961;28;88073;-67
2022/12/07 10:42:28;;;;;;;4.37;3.00;;;4.50;99.90;4.30;99997.00;;;;4800746;28;88323;-67
2022/12/07 10:45:15;;;;;;;5.87;3.13;;;4.50;99.90;4.30;99991.00;;;;4816119;28;112266;-68
2022/12/07 10:48:02;;;;;;;5.53;3.03;;;4.50;99.90;4.30;99979.00;;;;4811445;28;88530;-67
2022/12/07 10:51:23;;;;;;;4.77;3.50;;;4.60;99.90;4.30;99990.00;;;;4792738;28;99876;-67
2022/12/07 10:54:18;;;;;;;3.87;3.37;;;4.60;99.90;4.30;99990.00;;;;4817688;28;87924;-67
2022/12/07 10:57:02;;;;;;;3.53;2.93;;;4.50;99.90;4.30;99980.00;;;;4798781;28;88073;-66
2022/12/07 10:59:55;;;;;;;3.33;2.50;;;4.50;99.90;4.30;99982.00;;;;4814679;28;87853;-67
2022/12/07 11:02:38;;;;;;;3.27;2.80;;;4.60;99.90;4.40;99981.00;;;;4813656;28;87701;-67
2022/12/07 11:05:23;;;;;;;3.43;2.33;;;4.60;99.90;4.40;99985.00;;;;4802127;28;98454;-68
2022/12/07 11:08:17;;;;;;;5.30;2.77;;;4.60;99.90;4.40;99981.00;;;;4813470;28;88109;-69
2022/12/07 11:11:02;;;;;;;4.30;2.80;;;4.60;99.90;4.40;99981.00;;;;4815687;28;109258;-65
2022/12/07 11:13:56;;;;;;;2.53;2.23;;;4.60;99.90;4.40;99984.00;;;;4814828;28;88045;-65
2022/12/07 11:16:52;;;;;;;6.93;3.13;;;4.60;99.90;4.40;99976.00;;;;4816747;28;87756;-66
2022/12/07 11:19:50;;;;;;;7.00;3.23;;;4.70;99.90;4.40;99970.00;;;;4811733;28;88971;-66
2022/12/07 11:23:02;;;;;;;3.77;2.47;;;4.70;99.90;4.50;99977.00;;;;4798230;28;88309;-66
2022/12/07 11:25:39;;;;;;;3.70;2.03;;;4.70;99.90;4.50;99977.00;;;;4792038;28;87263;-67
2022/12/07 11:28:43;;;;;;;3.17;2.33;;;4.60;99.90;4.40;99968.00;;;;4799609;28;87909;-65